sensor_id;sensor_type;location;lat;lon;timestamp;P1;durP1;ratioP1;P2;durP2;ratioP2
12871;SDS011;6504;53.766;9.626;2024-02-15T00:00:21;32.60;;;20.70;;
12871;SDS011;6504;53.766;9.626;2024-02-15T00:02:52;32.83;;;20.23;;
12871;SDS011;6504;53.766;9.626;2024-02-15T00:05:20;33.83;;;20.23;;
12871;SDS011;6504;53.766;9.626;2024-02-15T00:07:48;33.33;;;21.37;;
12871;SDS011;6504;53.766;9.626;2024-02-15T00:10:16;33.30;;;20.17;;
12871;SDS011;6504;53.766;9.626;2024-02-15T00:12:44;36.53;;;22.27;;
12871;SDS011;6504;53.766;9.626;2024-02-15T00:15:17;35.43;;;21.53;;
12871;SDS011;6504;53.766;9.626;2024-02-15T00:17:46;36.97;;;22.43;;
12871;SDS011;6504;53.766;9.626;2024-02-15T00:20:14;37.20;;;22.57;;
12871;SDS011;6504;53.766;9.626;2024-02-15T00:22:44;34.60;;;21.73;;
12871;SDS011;6504;53.766;9.626;2024-02-15T00:25:14;34.73;;;22.47;;
12871;SDS011;6504;53.766;9.626;2024-02-15T00:27:43;33.57;;;21.03;;
12871;SDS011;6504;53.766;9.626;2024-02-15T00:30:11;36.33;;;21.47;;
12871;SDS011;6504;53.766;9.626;2024-02-15T00:32:41;36.37;;;22.23;;
12871;SDS011;6504;53.766;9.626;2024-02-15T00:35:11;34.00;;;20.57;;
12871;SDS011;6504;53.766;9.626;2024-02-15T00:37:40;34.27;;;20.60;;
12871;SDS011;6504;53.766;9.626;2024-02-15T00:40:08;36.00;;;20.83;;
12871;SDS011;6504;53.766;9.626;2024-02-15T00:42:37;32.20;;;20.30;;
12871;SDS011;6504;53.766;9.626;2024-02-15T00:45:05;32.93;;;19.87;;
12871;SDS011;6504;53.766;9.626;2024-02-15T00:47:35;33.90;;;19.57;;
12871;SDS011;6504;53.766;9.626;2024-02-15T00:50:06;33.10;;;19.37;;
12871;SDS011;6504;53.766;9.626;2024-02-15T00:52:35;33.43;;;19.90;;
12871;SDS011;6504;53.766;9.626;2024-02-15T00:55:03;32.10;;;19.80;;
12871;SDS011;6504;53.766;9.626;2024-02-15T00:57:32;30.37;;;18.97;;
12871;SDS011;6504;53.766;9.626;2024-02-15T01:00:00;33.77;;;19.17;;
12871;SDS011;6504;53.766;9.626;2024-02-15T01:02:30;33.07;;;19.17;;
12871;SDS011;6504;53.766;9.626;2024-02-15T01:04:58;33.67;;;19.63;;
12871;SDS011;6504;53.766;9.626;2024-02-15T01:07:27;30.93;;;18.07;;
12871;SDS011;6504;53.766;9.626;2024-02-15T01:09:55;31.57;;;18.10;;
12871;SDS011;6504;53.766;9.626;2024-02-15T01:12:24;33.33;;;18.40;;
12871;SDS011;6504;53.766;9.626;2024-02-15T01:14:52;29.93;;;18.33;;
12871;SDS011;6504;53.766;9.626;2024-02-15T01:17:22;32.97;;;19.13;;
12871;SDS011;6504;53.766;9.626;2024-02-15T01:19:50;31.53;;;18.73;;
12871;SDS011;6504;53.766;9.626;2024-02-15T01:22:18;29.63;;;18.63;;
12871;SDS011;6504;53.766;9.626;2024-02-15T01:24:51;28.53;;;18.13;;
12871;SDS011;6504;53.766;9.626;2024-02-15T01:27:19;31.37;;;18.10;;
12871;SDS011;6504;53.766;9.626;2024-02-15T01:29:47;30.77;;;18.93;;
12871;SDS011;6504;53.766;9.626;2024-02-15T01:32:15;30.53;;;19.13;;
12871;SDS011;6504;53.766;9.626;2024-02-15T01:34:43;27.10;;;18.10;;
12871;SDS011;6504;53.766;9.626;2024-02-15T01:37:12;30.43;;;18.77;;
12871;SDS011;6504;53.766;9.626;2024-02-15T01:39:40;32.93;;;19.37;;
12871;SDS011;6504;53.766;9.626;2024-02-15T01:42:09;32.30;;;18.83;;
12871;SDS011;6504;53.766;9.626;2024-02-15T01:44:37;31.50;;;17.83;;
12871;SDS011;6504;53.766;9.626;2024-02-15T01:47:06;33.07;;;18.67;;
12871;SDS011;6504;53.766;9.626;2024-02-15T01:49:35;34.57;;;18.90;;
12871;SDS011;6504;53.766;9.626;2024-02-15T01:52:04;33.13;;;19.30;;
12871;SDS011;6504;53.766;9.626;2024-02-15T01:54:34;31.13;;;19.33;;
12871;SDS011;6504;53.766;9.626;2024-02-15T01:57:05;33.03;;;18.70;;
12871;SDS011;6504;53.766;9.626;2024-02-15T01:59:35;31.97;;;19.10;;
12871;SDS011;6504;53.766;9.626;2024-02-15T02:02:04;31.07;;;18.67;;
12871;SDS011;6504;53.766;9.626;2024-02-15T02:04:37;30.73;;;17.80;;
12871;SDS011;6504;53.766;9.626;2024-02-15T02:07:06;34.63;;;18.40;;
12871;SDS011;6504;53.766;9.626;2024-02-15T02:09:35;32.23;;;18.63;;
12871;SDS011;6504;53.766;9.626;2024-02-15T02:12:03;33.80;;;19.30;;
12871;SDS011;6504;53.766;9.626;2024-02-15T02:14:35;35.07;;;20.23;;
12871;SDS011;6504;53.766;9.626;2024-02-15T02:17:12;33.93;;;18.90;;
12871;SDS011;6504;53.766;9.626;2024-02-15T02:19:41;34.27;;;19.07;;
12871;SDS011;6504;53.766;9.626;2024-02-15T02:22:10;30.90;;;17.53;;
12871;SDS011;6504;53.766;9.626;2024-02-15T02:24:40;33.83;;;20.13;;
12871;SDS011;6504;53.766;9.626;2024-02-15T02:27:22;33.27;;;18.33;;
12871;SDS011;6504;53.766;9.626;2024-02-15T02:29:51;36.17;;;19.83;;
12871;SDS011;6504;53.766;9.626;2024-02-15T02:32:19;35.73;;;19.80;;
12871;SDS011;6504;53.766;9.626;2024-02-15T02:34:47;37.13;;;20.77;;
12871;SDS011;6504;53.766;9.626;2024-02-15T02:37:15;32.43;;;19.53;;
12871;SDS011;6504;53.766;9.626;2024-02-15T02:39:44;34.60;;;21.47;;
12871;SDS011;6504;53.766;9.626;2024-02-15T02:42:13;35.50;;;20.20;;
12871;SDS011;6504;53.766;9.626;2024-02-15T02:44:41;40.03;;;21.53;;
12871;SDS011;6504;53.766;9.626;2024-02-15T02:47:10;35.50;;;20.40;;
12871;SDS011;6504;53.766;9.626;2024-02-15T02:49:38;36.73;;;21.37;;
12871;SDS011;6504;53.766;9.626;2024-02-15T02:52:06;36.40;;;21.70;;
12871;SDS011;6504;53.766;9.626;2024-02-15T02:54:35;36.03;;;21.00;;
12871;SDS011;6504;53.766;9.626;2024-02-15T02:57:03;36.17;;;20.80;;
12871;SDS011;6504;53.766;9.626;2024-02-15T02:59:35;37.77;;;22.13;;
12871;SDS011;6504;53.766;9.626;2024-02-15T03:02:06;41.00;;;21.57;;
12871;SDS011;6504;53.766;9.626;2024-02-15T03:04:34;43.20;;;22.23;;
12871;SDS011;6504;53.766;9.626;2024-02-15T03:07:05;39.53;;;21.60;;
12871;SDS011;6504;53.766;9.626;2024-02-15T03:09:33;39.83;;;21.87;;
12871;SDS011;6504;53.766;9.626;2024-02-15T03:12:03;40.93;;;22.17;;
12871;SDS011;6504;53.766;9.626;2024-02-15T03:14:32;40.70;;;22.70;;
12871;SDS011;6504;53.766;9.626;2024-02-15T03:17:03;43.23;;;23.00;;
12871;SDS011;6504;53.766;9.626;2024-02-15T03:19:32;41.03;;;23.30;;
12871;SDS011;6504;53.766;9.626;2024-02-15T03:22:00;40.73;;;21.50;;
12871;SDS011;6504;53.766;9.626;2024-02-15T03:24:28;41.40;;;22.13;;
12871;SDS011;6504;53.766;9.626;2024-02-15T03:26:56;40.73;;;22.37;;
12871;SDS011;6504;53.766;9.626;2024-02-15T03:29:25;43.67;;;22.33;;
12871;SDS011;6504;53.766;9.626;2024-02-15T03:31:53;41.00;;;22.43;;
12871;SDS011;6504;53.766;9.626;2024-02-15T03:34:23;44.77;;;22.40;;
12871;SDS011;6504;53.766;9.626;2024-02-15T03:36:52;41.90;;;23.27;;
12871;SDS011;6504;53.766;9.626;2024-02-15T03:39:20;46.00;;;23.30;;
12871;SDS011;6504;53.766;9.626;2024-02-15T03:41:50;43.30;;;22.60;;
12871;SDS011;6504;53.766;9.626;2024-02-15T03:44:20;44.37;;;23.13;;
12871;SDS011;6504;53.766;9.626;2024-02-15T03:46:48;40.70;;;21.97;;
12871;SDS011;6504;53.766;9.626;2024-02-15T03:49:18;47.83;;;24.60;;
12871;SDS011;6504;53.766;9.626;2024-02-15T03:51:48;43.57;;;23.67;;
12871;SDS011;6504;53.766;9.626;2024-02-15T03:54:17;43.57;;;23.37;;
12871;SDS011;6504;53.766;9.626;2024-02-15T03:56:48;45.53;;;22.67;;
12871;SDS011;6504;53.766;9.626;2024-02-15T03:59:18;46.37;;;22.50;;
12871;SDS011;6504;53.766;9.626;2024-02-15T04:01:53;44.87;;;23.83;;
12871;SDS011;6504;53.766;9.626;2024-02-15T04:04:22;47.97;;;23.40;;
12871;SDS011;6504;53.766;9.626;2024-02-15T04:06:52;47.97;;;22.87;;
12871;SDS011;6504;53.766;9.626;2024-02-15T04:09:20;45.90;;;24.03;;
12871;SDS011;6504;53.766;9.626;2024-02-15T04:11:48;51.53;;;24.40;;
12871;SDS011;6504;53.766;9.626;2024-02-15T04:14:20;54.43;;;25.17;;
12871;SDS011;6504;53.766;9.626;2024-02-15T04:16:48;47.73;;;24.17;;
12871;SDS011;6504;53.766;9.626;2024-02-15T04:19:16;48.07;;;24.97;;
12871;SDS011;6504;53.766;9.626;2024-02-15T04:21:46;46.17;;;24.40;;
12871;SDS011;6504;53.766;9.626;2024-02-15T04:24:16;45.40;;;23.47;;
12871;SDS011;6504;53.766;9.626;2024-02-15T04:26:44;45.50;;;24.17;;
12871;SDS011;6504;53.766;9.626;2024-02-15T04:29:14;51.57;;;24.80;;
12871;SDS011;6504;53.766;9.626;2024-02-15T04:31:44;53.13;;;24.93;;
12871;SDS011;6504;53.766;9.626;2024-02-15T04:34:15;51.13;;;24.97;;
12871;SDS011;6504;53.766;9.626;2024-02-15T04:36:45;50.73;;;25.67;;
12871;SDS011;6504;53.766;9.626;2024-02-15T04:39:17;50.37;;;24.60;;
12871;SDS011;6504;53.766;9.626;2024-02-15T04:41:50;54.93;;;25.67;;
12871;SDS011;6504;53.766;9.626;2024-02-15T04:44:19;48.37;;;24.47;;
12871;SDS011;6504;53.766;9.626;2024-02-15T04:46:48;48.33;;;24.53;;
12871;SDS011;6504;53.766;9.626;2024-02-15T04:49:16;51.90;;;24.73;;
12871;SDS011;6504;53.766;9.626;2024-02-15T04:51:45;48.17;;;24.13;;
12871;SDS011;6504;53.766;9.626;2024-02-15T04:54:14;50.90;;;24.87;;
12871;SDS011;6504;53.766;9.626;2024-02-15T04:56:45;48.93;;;25.80;;
12871;SDS011;6504;53.766;9.626;2024-02-15T04:59:14;53.60;;;25.20;;
12871;SDS011;6504;53.766;9.626;2024-02-15T05:01:42;47.37;;;25.13;;
12871;SDS011;6504;53.766;9.626;2024-02-15T05:04:11;48.30;;;25.07;;
12871;SDS011;6504;53.766;9.626;2024-02-15T05:06:40;53.93;;;24.53;;
12871;SDS011;6504;53.766;9.626;2024-02-15T05:09:08;52.00;;;25.23;;
12871;SDS011;6504;53.766;9.626;2024-02-15T05:11:37;50.80;;;25.30;;
12871;SDS011;6504;53.766;9.626;2024-02-15T05:14:09;50.40;;;25.30;;
12871;SDS011;6504;53.766;9.626;2024-02-15T05:16:37;49.43;;;23.87;;
12871;SDS011;6504;53.766;9.626;2024-02-15T05:19:08;50.67;;;24.10;;
12871;SDS011;6504;53.766;9.626;2024-02-15T05:21:38;48.73;;;23.73;;
12871;SDS011;6504;53.766;9.626;2024-02-15T05:24:07;45.13;;;23.63;;
12871;SDS011;6504;53.766;9.626;2024-02-15T05:26:35;47.50;;;24.93;;
12871;SDS011;6504;53.766;9.626;2024-02-15T05:29:03;47.37;;;24.17;;
12871;SDS011;6504;53.766;9.626;2024-02-15T05:31:33;50.40;;;23.73;;
12871;SDS011;6504;53.766;9.626;2024-02-15T05:34:04;45.10;;;23.00;;
12871;SDS011;6504;53.766;9.626;2024-02-15T05:36:34;42.73;;;23.07;;
12871;SDS011;6504;53.766;9.626;2024-02-15T05:39:02;43.23;;;22.60;;
12871;SDS011;6504;53.766;9.626;2024-02-15T05:41:31;46.03;;;24.17;;
12871;SDS011;6504;53.766;9.626;2024-02-15T05:44:00;46.53;;;24.80;;
12871;SDS011;6504;53.766;9.626;2024-02-15T05:46:31;44.60;;;24.73;;
12871;SDS011;6504;53.766;9.626;2024-02-15T05:49:01;43.13;;;23.80;;
12871;SDS011;6504;53.766;9.626;2024-02-15T05:51:31;49.07;;;24.20;;
12871;SDS011;6504;53.766;9.626;2024-02-15T05:54:00;50.30;;;24.77;;
12871;SDS011;6504;53.766;9.626;2024-02-15T05:56:29;44.57;;;23.53;;
12871;SDS011;6504;53.766;9.626;2024-02-15T05:58:57;47.80;;;22.30;;
12871;SDS011;6504;53.766;9.626;2024-02-15T06:01:25;44.73;;;24.37;;
12871;SDS011;6504;53.766;9.626;2024-02-15T06:03:55;42.03;;;23.83;;
12871;SDS011;6504;53.766;9.626;2024-02-15T06:06:25;44.03;;;23.70;;
12871;SDS011;6504;53.766;9.626;2024-02-15T06:08:54;46.13;;;23.87;;
12871;SDS011;6504;53.766;9.626;2024-02-15T06:11:26;48.07;;;23.93;;
12871;SDS011;6504;53.766;9.626;2024-02-15T06:13:54;46.47;;;25.43;;
12871;SDS011;6504;53.766;9.626;2024-02-15T06:16:22;45.37;;;24.07;;
12871;SDS011;6504;53.766;9.626;2024-02-15T06:18:50;45.40;;;24.27;;
12871;SDS011;6504;53.766;9.626;2024-02-15T06:21:18;46.53;;;24.27;;
12871;SDS011;6504;53.766;9.626;2024-02-15T06:23:48;52.17;;;25.20;;
12871;SDS011;6504;53.766;9.626;2024-02-15T06:26:17;51.73;;;25.10;;
12871;SDS011;6504;53.766;9.626;2024-02-15T06:28:47;50.60;;;25.50;;
12871;SDS011;6504;53.766;9.626;2024-02-15T06:31:32;48.20;;;26.23;;
12871;SDS011;6504;53.766;9.626;2024-02-15T06:34:17;52.97;;;26.10;;
12871;SDS011;6504;53.766;9.626;2024-02-15T06:37:03;49.20;;;24.50;;
12871;SDS011;6504;53.766;9.626;2024-02-15T06:39:50;47.47;;;25.70;;
12871;SDS011;6504;53.766;9.626;2024-02-15T06:42:18;50.13;;;26.73;;
12871;SDS011;6504;53.766;9.626;2024-02-15T06:44:47;53.60;;;26.87;;
12871;SDS011;6504;53.766;9.626;2024-02-15T06:47:16;49.73;;;27.03;;
12871;SDS011;6504;53.766;9.626;2024-02-15T06:49:45;52.60;;;26.43;;
12871;SDS011;6504;53.766;9.626;2024-02-15T06:52:16;54.47;;;26.70;;
12871;SDS011;6504;53.766;9.626;2024-02-15T06:54:44;47.03;;;25.37;;
12871;SDS011;6504;53.766;9.626;2024-02-15T06:57:14;49.33;;;25.73;;
12871;SDS011;6504;53.766;9.626;2024-02-15T06:59:45;50.90;;;26.80;;
12871;SDS011;6504;53.766;9.626;2024-02-15T07:02:14;51.30;;;26.07;;
12871;SDS011;6504;53.766;9.626;2024-02-15T07:04:43;50.63;;;25.20;;
12871;SDS011;6504;53.766;9.626;2024-02-15T07:07:12;47.70;;;25.37;;
12871;SDS011;6504;53.766;9.626;2024-02-15T07:09:41;43.60;;;23.83;;
12871;SDS011;6504;53.766;9.626;2024-02-15T07:12:09;46.63;;;24.90;;
12871;SDS011;6504;53.766;9.626;2024-02-15T07:14:39;48.43;;;23.37;;
12871;SDS011;6504;53.766;9.626;2024-02-15T07:17:07;43.80;;;23.70;;
12871;SDS011;6504;53.766;9.626;2024-02-15T07:19:37;41.67;;;22.07;;
12871;SDS011;6504;53.766;9.626;2024-02-15T07:22:05;40.83;;;22.23;;
12871;SDS011;6504;53.766;9.626;2024-02-15T07:24:33;45.13;;;22.30;;
12871;SDS011;6504;53.766;9.626;2024-02-15T07:27:04;43.53;;;23.07;;
12871;SDS011;6504;53.766;9.626;2024-02-15T07:29:33;40.83;;;22.37;;
12871;SDS011;6504;53.766;9.626;2024-02-15T07:32:05;41.60;;;22.07;;
12871;SDS011;6504;53.766;9.626;2024-02-15T07:34:34;42.83;;;21.73;;
12871;SDS011;6504;53.766;9.626;2024-02-15T07:37:03;37.20;;;21.53;;
12871;SDS011;6504;53.766;9.626;2024-02-15T07:39:31;43.20;;;22.67;;
12871;SDS011;6504;53.766;9.626;2024-02-15T07:42:00;37.90;;;21.67;;
12871;SDS011;6504;53.766;9.626;2024-02-15T07:44:30;38.10;;;19.60;;
12871;SDS011;6504;53.766;9.626;2024-02-15T07:46:59;38.53;;;19.23;;
12871;SDS011;6504;53.766;9.626;2024-02-15T07:49:28;34.00;;;19.63;;
12871;SDS011;6504;53.766;9.626;2024-02-15T07:51:57;36.33;;;21.10;;
12871;SDS011;6504;53.766;9.626;2024-02-15T07:54:26;35.10;;;19.80;;
12871;SDS011;6504;53.766;9.626;2024-02-15T07:56:56;34.00;;;19.30;;
12871;SDS011;6504;53.766;9.626;2024-02-15T07:59:25;36.03;;;19.83;;
12871;SDS011;6504;53.766;9.626;2024-02-15T08:01:53;31.77;;;18.60;;
12871;SDS011;6504;53.766;9.626;2024-02-15T08:04:21;33.47;;;18.33;;
12871;SDS011;6504;53.766;9.626;2024-02-15T08:06:52;32.73;;;18.00;;
12871;SDS011;6504;53.766;9.626;2024-02-15T08:09:20;28.77;;;16.90;;
12871;SDS011;6504;53.766;9.626;2024-02-15T08:11:50;32.30;;;17.30;;
12871;SDS011;6504;53.766;9.626;2024-02-15T08:14:20;29.23;;;17.03;;
12871;SDS011;6504;53.766;9.626;2024-02-15T08:16:48;30.80;;;18.00;;
12871;SDS011;6504;53.766;9.626;2024-02-15T08:19:16;30.83;;;17.27;;
12871;SDS011;6504;53.766;9.626;2024-02-15T08:21:44;30.50;;;16.60;;
12871;SDS011;6504;53.766;9.626;2024-02-15T08:24:18;28.70;;;16.47;;
12871;SDS011;6504;53.766;9.626;2024-02-15T08:26:46;28.77;;;15.43;;
12871;SDS011;6504;53.766;9.626;2024-02-15T08:29:15;30.50;;;16.00;;
12871;SDS011;6504;53.766;9.626;2024-02-15T08:31:43;27.60;;;15.83;;
12871;SDS011;6504;53.766;9.626;2024-02-15T08:34:11;28.70;;;16.50;;
12871;SDS011;6504;53.766;9.626;2024-02-15T08:36:41;28.73;;;15.70;;
12871;SDS011;6504;53.766;9.626;2024-02-15T08:39:09;27.13;;;15.03;;
12871;SDS011;6504;53.766;9.626;2024-02-15T08:41:40;27.33;;;15.67;;
12871;SDS011;6504;53.766;9.626;2024-02-15T08:44:08;23.20;;;15.03;;
12871;SDS011;6504;53.766;9.626;2024-02-15T08:46:41;28.37;;;15.57;;
12871;SDS011;6504;53.766;9.626;2024-02-15T08:49:09;30.57;;;15.83;;
12871;SDS011;6504;53.766;9.626;2024-02-15T08:51:40;29.30;;;15.30;;
12871;SDS011;6504;53.766;9.626;2024-02-15T08:54:08;28.73;;;16.27;;
12871;SDS011;6504;53.766;9.626;2024-02-15T08:56:36;28.93;;;15.97;;
12871;SDS011;6504;53.766;9.626;2024-02-15T08:59:06;31.43;;;16.17;;
12871;SDS011;6504;53.766;9.626;2024-02-15T09:01:34;26.27;;;16.33;;
12871;SDS011;6504;53.766;9.626;2024-02-15T09:04:02;27.90;;;15.70;;
12871;SDS011;6504;53.766;9.626;2024-02-15T09:06:30;30.27;;;17.27;;
12871;SDS011;6504;53.766;9.626;2024-02-15T09:08:58;29.37;;;17.30;;
12871;SDS011;6504;53.766;9.626;2024-02-15T09:11:28;34.23;;;18.20;;
12871;SDS011;6504;53.766;9.626;2024-02-15T09:13:56;34.47;;;18.53;;
12871;SDS011;6504;53.766;9.626;2024-02-15T09:16:26;30.47;;;16.90;;
12871;SDS011;6504;53.766;9.626;2024-02-15T09:18:56;34.23;;;18.20;;
12871;SDS011;6504;53.766;9.626;2024-02-15T09:21:27;38.33;;;18.80;;
12871;SDS011;6504;53.766;9.626;2024-02-15T09:23:56;32.90;;;18.40;;
12871;SDS011;6504;53.766;9.626;2024-02-15T09:26:24;37.43;;;19.37;;
12871;SDS011;6504;53.766;9.626;2024-02-15T09:28:54;34.73;;;18.60;;
12871;SDS011;6504;53.766;9.626;2024-02-15T09:31:22;34.67;;;19.03;;
12871;SDS011;6504;53.766;9.626;2024-02-15T09:33:52;33.67;;;19.53;;
12871;SDS011;6504;53.766;9.626;2024-02-15T09:36:21;36.60;;;18.73;;
12871;SDS011;6504;53.766;9.626;2024-02-15T09:38:49;36.87;;;19.43;;
12871;SDS011;6504;53.766;9.626;2024-02-15T09:41:16;37.67;;;20.30;;
12871;SDS011;6504;53.766;9.626;2024-02-15T09:43:44;35.30;;;19.53;;
12871;SDS011;6504;53.766;9.626;2024-02-15T09:46:12;37.20;;;19.77;;
12871;SDS011;6504;53.766;9.626;2024-02-15T09:48:40;38.90;;;20.47;;
12871;SDS011;6504;53.766;9.626;2024-02-15T09:51:17;40.90;;;21.03;;
12871;SDS011;6504;53.766;9.626;2024-02-15T09:53:47;39.80;;;21.03;;
12871;SDS011;6504;53.766;9.626;2024-02-15T09:56:16;40.17;;;21.60;;
12871;SDS011;6504;53.766;9.626;2024-02-15T09:58:44;39.73;;;21.87;;
12871;SDS011;6504;53.766;9.626;2024-02-15T10:01:12;40.80;;;21.33;;
12871;SDS011;6504;53.766;9.626;2024-02-15T10:03:42;41.13;;;21.37;;
12871;SDS011;6504;53.766;9.626;2024-02-15T10:06:10;42.13;;;23.07;;
12871;SDS011;6504;53.766;9.626;2024-02-15T10:08:40;43.80;;;24.00;;
12871;SDS011;6504;53.766;9.626;2024-02-15T10:11:08;45.83;;;23.70;;
12871;SDS011;6504;53.766;9.626;2024-02-15T10:13:37;41.10;;;23.00;;
12871;SDS011;6504;53.766;9.626;2024-02-15T10:16:15;40.57;;;22.67;;
12871;SDS011;6504;53.766;9.626;2024-02-15T10:18:45;43.73;;;21.93;;
12871;SDS011;6504;53.766;9.626;2024-02-15T10:21:24;36.10;;;21.13;;
12871;SDS011;6504;53.766;9.626;2024-02-15T10:24:06;41.90;;;24.17;;
12871;SDS011;6504;53.766;9.626;2024-02-15T10:26:35;42.97;;;23.47;;
12871;SDS011;6504;53.766;9.626;2024-02-15T10:29:04;41.13;;;22.90;;
12871;SDS011;6504;53.766;9.626;2024-02-15T10:31:36;43.70;;;23.67;;
12871;SDS011;6504;53.766;9.626;2024-02-15T10:34:07;40.83;;;23.40;;
12871;SDS011;6504;53.766;9.626;2024-02-15T10:36:36;43.70;;;24.47;;
12871;SDS011;6504;53.766;9.626;2024-02-15T10:39:13;42.87;;;24.33;;
12871;SDS011;6504;53.766;9.626;2024-02-15T10:41:46;42.27;;;23.90;;
12871;SDS011;6504;53.766;9.626;2024-02-15T10:44:16;40.23;;;24.57;;
12871;SDS011;6504;53.766;9.626;2024-02-15T10:46:46;42.20;;;24.33;;
12871;SDS011;6504;53.766;9.626;2024-02-15T10:49:18;41.00;;;23.20;;
12871;SDS011;6504;53.766;9.626;2024-02-15T10:51:51;41.83;;;25.13;;
12871;SDS011;6504;53.766;9.626;2024-02-15T10:54:29;38.97;;;23.47;;
12871;SDS011;6504;53.766;9.626;2024-02-15T10:57:08;41.67;;;24.40;;
12871;SDS011;6504;53.766;9.626;2024-02-15T10:59:38;40.43;;;25.40;;
12871;SDS011;6504;53.766;9.626;2024-02-15T11:02:18;44.03;;;27.40;;
12871;SDS011;6504;53.766;9.626;2024-02-15T11:04:57;45.60;;;27.23;;
12871;SDS011;6504;53.766;9.626;2024-02-15T11:07:31;45.30;;;27.80;;
12871;SDS011;6504;53.766;9.626;2024-02-15T11:10:01;40.67;;;25.73;;
12871;SDS011;6504;53.766;9.626;2024-02-15T11:12:34;41.27;;;26.77;;
12871;SDS011;6504;53.766;9.626;2024-02-15T11:15:04;38.97;;;27.67;;
12871;SDS011;6504;53.766;9.626;2024-02-15T11:17:46;41.00;;;25.63;;
12871;SDS011;6504;53.766;9.626;2024-02-15T11:23:23;37.20;;;25.87;;
12871;SDS011;6504;53.766;9.626;2024-02-15T11:26:03;37.50;;;26.70;;
12871;SDS011;6504;53.766;9.626;2024-02-15T11:28:36;39.50;;;27.33;;
12871;SDS011;6504;53.766;9.626;2024-02-15T11:31:14;39.97;;;27.03;;
12871;SDS011;6504;53.766;9.626;2024-02-15T11:34:41;36.60;;;25.10;;
12871;SDS011;6504;53.766;9.626;2024-02-15T11:40:18;38.97;;;25.33;;
12871;SDS011;6504;53.766;9.626;2024-02-15T11:42:51;37.57;;;25.33;;
12871;SDS011;6504;53.766;9.626;2024-02-15T11:45:20;40.97;;;26.40;;
12871;SDS011;6504;53.766;9.626;2024-02-15T11:47:50;37.70;;;26.43;;
12871;SDS011;6504;53.766;9.626;2024-02-15T11:50:19;36.87;;;26.40;;
12871;SDS011;6504;53.766;9.626;2024-02-15T11:52:49;41.80;;;26.90;;
12871;SDS011;6504;53.766;9.626;2024-02-15T11:55:18;38.47;;;27.73;;
12871;SDS011;6504;53.766;9.626;2024-02-15T11:57:55;40.87;;;26.57;;
12871;SDS011;6504;53.766;9.626;2024-02-15T12:00:29;41.20;;;27.67;;
12871;SDS011;6504;53.766;9.626;2024-02-15T12:03:16;40.80;;;28.27;;
12871;SDS011;6504;53.766;9.626;2024-02-15T12:06:02;41.17;;;26.73;;
12871;SDS011;6504;53.766;9.626;2024-02-15T12:08:49;41.53;;;28.30;;
12871;SDS011;6504;53.766;9.626;2024-02-15T12:11:36;40.77;;;29.73;;
12871;SDS011;6504;53.766;9.626;2024-02-15T12:14:23;41.63;;;29.40;;
12871;SDS011;6504;53.766;9.626;2024-02-15T12:17:10;43.20;;;30.20;;
12871;SDS011;6504;53.766;9.626;2024-02-15T12:19:57;40.67;;;29.37;;
12871;SDS011;6504;53.766;9.626;2024-02-15T12:22:33;44.83;;;30.70;;
12871;SDS011;6504;53.766;9.626;2024-02-15T12:25:04;45.30;;;32.20;;
12871;SDS011;6504;53.766;9.626;2024-02-15T12:27:38;43.07;;;30.17;;
12871;SDS011;6504;53.766;9.626;2024-02-15T12:30:08;43.40;;;30.13;;
12871;SDS011;6504;53.766;9.626;2024-02-15T12:32:41;41.40;;;29.50;;
12871;SDS011;6504;53.766;9.626;2024-02-15T12:35:10;43.80;;;30.90;;
12871;SDS011;6504;53.766;9.626;2024-02-15T12:37:43;44.13;;;32.00;;
12871;SDS011;6504;53.766;9.626;2024-02-15T12:40:11;40.13;;;29.63;;
12871;SDS011;6504;53.766;9.626;2024-02-15T12:42:43;40.27;;;30.03;;
12871;SDS011;6504;53.766;9.626;2024-02-15T12:45:16;41.57;;;28.70;;
12871;SDS011;6504;53.766;9.626;2024-02-15T12:47:49;39.97;;;27.80;;
12871;SDS011;6504;53.766;9.626;2024-02-15T12:50:18;40.67;;;28.73;;
12871;SDS011;6504;53.766;9.626;2024-02-15T12:52:48;40.67;;;28.47;;
12871;SDS011;6504;53.766;9.626;2024-02-15T12:55:17;38.17;;;28.13;;
12871;SDS011;6504;53.766;9.626;2024-02-15T12:57:47;41.80;;;28.00;;
12871;SDS011;6504;53.766;9.626;2024-02-15T13:00:19;41.10;;;28.77;;
12871;SDS011;6504;53.766;9.626;2024-02-15T13:02:48;38.87;;;28.23;;
12871;SDS011;6504;53.766;9.626;2024-02-15T13:05:18;39.37;;;28.03;;
12871;SDS011;6504;53.766;9.626;2024-02-15T13:07:48;36.90;;;27.63;;
12871;SDS011;6504;53.766;9.626;2024-02-15T13:10:16;38.37;;;28.00;;
12871;SDS011;6504;53.766;9.626;2024-02-15T13:12:45;33.70;;;27.83;;
12871;SDS011;6504;53.766;9.626;2024-02-15T13:15:14;36.13;;;28.33;;
12871;SDS011;6504;53.766;9.626;2024-02-15T13:17:46;35.13;;;27.40;;
12871;SDS011;6504;53.766;9.626;2024-02-15T13:20:15;37.70;;;28.10;;
12871;SDS011;6504;53.766;9.626;2024-02-15T13:22:46;37.43;;;27.33;;
12871;SDS011;6504;53.766;9.626;2024-02-15T13:25:15;34.50;;;27.70;;
12871;SDS011;6504;53.766;9.626;2024-02-15T13:27:43;34.73;;;26.93;;
12871;SDS011;6504;53.766;9.626;2024-02-15T13:30:12;35.10;;;27.03;;
12871;SDS011;6504;53.766;9.626;2024-02-15T13:32:41;36.20;;;26.33;;
12871;SDS011;6504;53.766;9.626;2024-02-15T13:35:11;34.27;;;25.97;;
12871;SDS011;6504;53.766;9.626;2024-02-15T13:37:41;32.17;;;25.10;;
12871;SDS011;6504;53.766;9.626;2024-02-15T13:40:10;33.50;;;24.63;;
12871;SDS011;6504;53.766;9.626;2024-02-15T13:42:42;31.13;;;24.70;;
12871;SDS011;6504;53.766;9.626;2024-02-15T13:45:16;31.90;;;25.00;;
12871;SDS011;6504;53.766;9.626;2024-02-15T13:47:45;30.33;;;24.70;;
12871;SDS011;6504;53.766;9.626;2024-02-15T13:50:19;32.07;;;23.60;;
12871;SDS011;6504;53.766;9.626;2024-02-15T13:52:47;29.43;;;24.23;;
12871;SDS011;6504;53.766;9.626;2024-02-15T13:55:16;31.70;;;24.67;;
12871;SDS011;6504;53.766;9.626;2024-02-15T13:57:47;32.70;;;24.27;;
12871;SDS011;6504;53.766;9.626;2024-02-15T14:00:16;28.33;;;24.50;;
12871;SDS011;6504;53.766;9.626;2024-02-15T14:02:49;29.67;;;23.80;;
12871;SDS011;6504;53.766;9.626;2024-02-15T14:05:17;32.83;;;25.40;;
12871;SDS011;6504;53.766;9.626;2024-02-15T14:07:50;30.37;;;25.30;;
12871;SDS011;6504;53.766;9.626;2024-02-15T14:10:21;33.73;;;25.60;;
12871;SDS011;6504;53.766;9.626;2024-02-15T14:12:50;31.67;;;24.90;;
12871;SDS011;6504;53.766;9.626;2024-02-15T14:15:21;32.43;;;25.60;;
12871;SDS011;6504;53.766;9.626;2024-02-15T14:17:49;31.33;;;25.13;;
12871;SDS011;6504;53.766;9.626;2024-02-15T14:20:20;31.93;;;26.37;;
12871;SDS011;6504;53.766;9.626;2024-02-15T14:22:48;28.43;;;25.10;;
12871;SDS011;6504;53.766;9.626;2024-02-15T14:25:22;30.80;;;24.53;;
12871;SDS011;6504;53.766;9.626;2024-02-15T14:27:53;32.00;;;25.40;;
12871;SDS011;6504;53.766;9.626;2024-02-15T14:30:23;34.10;;;26.13;;
12871;SDS011;6504;53.766;9.626;2024-02-15T14:33:08;31.07;;;24.93;;
12871;SDS011;6504;53.766;9.626;2024-02-15T14:35:48;31.13;;;25.77;;
12871;SDS011;6504;53.766;9.626;2024-02-15T14:38:17;35.57;;;25.90;;
12871;SDS011;6504;53.766;9.626;2024-02-15T14:40:47;29.13;;;25.10;;
12871;SDS011;6504;53.766;9.626;2024-02-15T14:43:19;33.77;;;27.17;;
12871;SDS011;6504;53.766;9.626;2024-02-15T14:45:48;32.47;;;26.23;;
12871;SDS011;6504;53.766;9.626;2024-02-15T14:48:18;30.13;;;26.73;;
12871;SDS011;6504;53.766;9.626;2024-02-15T14:50:49;31.23;;;26.53;;
12871;SDS011;6504;53.766;9.626;2024-02-15T14:53:19;31.80;;;26.53;;
12871;SDS011;6504;53.766;9.626;2024-02-15T14:55:48;31.97;;;26.60;;
12871;SDS011;6504;53.766;9.626;2024-02-15T14:58:18;29.17;;;25.67;;